Time;durP1;ratioP1;P1;durP2;ratioP2;P2;SDS_P1;SDS_P2;PMS_P1;PMS_P2;Temp;Humidity;BMP_temperature;BMP_pressure;BME280_temperature;BME280_humidity;BME280_pressure;Samples;Min_cycle;Max_cycle;Signal;HPM_P1;HPM_P2
2022/05/14 00:00:12;;;;;;;7.85;5.15;;;;;;;18.65;68.85;94385.34;5091882;28;20622;-59
2022/05/14 00:02:38;;;;;;;10.95;5.20;;;;;;;18.77;68.62;94396.72;5094238;28;20232;-59
2022/05/14 00:05:05;;;;;;;6.75;5.15;;;;;;;18.88;68.32;94405.75;5095695;28;20268;-59
2022/05/14 00:07:30;;;;;;;7.05;4.97;;;;;;;18.83;68.08;94405.50;5095724;28;20253;-60
2022/05/14 00:09:56;;;;;;;6.63;4.70;;;;;;;18.59;68.39;94393.00;5095217;28;20598;-60
2022/05/14 00:15:06;;;;;;;10.38;4.95;;;;;;;18.58;69.80;94378.53;5095479;28;20179;-61
2022/05/14 00:17:31;;;;;;;6.93;5.10;;;;;;;18.63;69.14;94386.50;5095061;28;20188;-60
2022/05/14 00:19:57;;;;;;;5.60;4.80;;;;;;;18.61;69.30;94388.47;5095435;28;20703;-61
2022/05/14 00:22:22;;;;;;;5.65;5.15;;;;;;;18.40;69.69;94378.97;5093668;28;20168;-61
2022/05/14 00:24:49;;;;;;;8.27;5.40;;;;;;;18.32;70.90;94374.72;5095218;28;20192;-61
2022/05/14 00:27:15;;;;;;;5.45;4.45;;;;;;;18.33;71.18;94371.16;5094997;28;20172;-61
2022/05/14 00:29:41;;;;;;;10.90;5.28;;;;;;;18.41;71.37;94372.81;5093734;28;20200;-60
2022/05/14 00:32:07;;;;;;;5.10;4.50;;;;;;;18.55;71.61;94373.75;5095163;28;20229;-60
2022/05/14 00:34:32;;;;;;;5.43;4.90;;;;;;;18.51;72.23;94369.94;5093538;28;20207;-58
2022/05/14 00:37:00;;;;;;;7.53;5.00;;;;;;;18.57;72.44;94362.28;5095072;28;20176;-60
2022/05/14 00:39:26;;;;;;;7.60;4.55;;;;;;;18.65;72.21;94369.09;5095282;28;20207;-61
2022/05/14 00:41:51;;;;;;;7.38;5.30;;;;;;;18.66;71.59;94386.16;5095036;28;20181;-60
2022/05/14 00:44:18;;;;;;;11.63;5.45;;;;;;;18.43;72.31;94369.13;5111884;28;20640;-59
2022/05/14 00:46:45;;;;;;;6.50;4.95;;;;;;;18.24;73.71;94351.66;5096851;28;20183;-59
2022/05/14 00:49:12;;;;;;;7.50;5.00;;;;;;;18.44;73.24;94368.13;5115245;28;20589;-62
2022/05/14 00:51:41;;;;;;;8.45;4.93;;;;;;;18.46;72.98;94378.25;5115113;28;20175;-60
2022/05/14 00:54:17;;;;;;;7.93;4.90;;;;;;;18.47;72.48;94382.41;5115255;28;20722;-61
2022/05/14 00:56:47;;;;;;;11.93;5.45;;;;;;;18.47;72.08;94384.97;5114829;28;20171;-62
2022/05/14 00:59:17;;;;;;;6.70;5.18;;;;;;;18.48;71.87;94391.75;5115160;28;20206;-59
2022/05/14 01:01:44;;;;;;;8.23;5.65;;;;;;;18.51;71.40;94395.69;5114740;28;20175;-59
2022/05/14 01:04:10;;;;;;;9.93;5.55;;;;;;;18.75;70.29;94408.19;5115250;28;20577;-58
2022/05/14 01:06:38;;;;;;;6.80;4.85;;;;;;;18.52;71.13;94395.53;5096412;28;20182;-60
2022/05/14 01:09:11;;;;;;;6.93;5.03;;;;;;;18.18;72.47;94380.69;5096435;28;20221;-60
2022/05/14 01:11:38;;;;;;;6.05;5.07;;;;;;;18.23;71.93;94386.13;5114846;28;20184;-59
2022/05/14 01:14:04;;;;;;;7.70;5.22;;;;;;;18.18;72.35;94382.50;5095647;28;20199;-61
2022/05/14 01:16:30;;;;;;;9.98;5.93;;;;;;;18.25;72.65;94379.00;5096410;28;20573;-61
2022/05/14 01:18:56;;;;;;;10.35;5.95;;;;;;;18.28;72.23;94386.34;5096421;28;20203;-59
2022/05/14 01:21:31;;;;;;;7.80;5.60;;;;;;;18.28;72.05;94385.56;5114459;28;20182;-61
2022/05/14 01:26:54;;;;;;;9.77;5.32;;;;;;;18.44;72.54;94375.06;5114391;28;20244;-62
2022/05/14 01:29:23;;;;;;;6.13;5.40;;;;;;;18.43;72.54;94376.84;5114068;28;20200;-62
2022/05/14 01:31:50;;;;;;;7.32;5.20;;;;;;;18.17;73.68;94355.97;5114079;28;20176;-61
2022/05/14 01:34:31;;;;;;;11.95;8.05;;;;;;;17.80;76.34;94340.72;5095904;28;20627;-61
2022/05/14 01:36:57;;;;;;;7.00;6.25;;;;;;;17.82;76.56;94345.66;5095878;28;20185;-61
2022/05/14 01:39:23;;;;;;;11.95;5.85;;;;;;;17.83;76.34;94345.50;5114363;28;20509;-61
2022/05/14 01:41:49;;;;;;;8.93;5.70;;;;;;;18.10;75.14;94365.38;5095953;28;20183;-60
2022/05/14 01:44:15;;;;;;;9.48;6.00;;;;;;;17.98;74.78;94359.13;5095845;28;20207;-59
2022/05/14 01:46:40;;;;;;;8.60;5.70;;;;;;;17.79;75.97;94339.13;5095577;28;20183;-61
2022/05/14 01:49:06;;;;;;;8.77;5.70;;;;;;;17.63;77.37;94336.78;5113700;28;20203;-63
2022/05/14 01:51:32;;;;;;;11.98;6.05;;;;;;;17.74;77.26;94344.00;5095703;28;20184;-62
2022/05/14 01:53:58;;;;;;;12.00;6.13;;;;;;;17.53;78.14;94342.19;5114084;28;20195;-61
2022/05/14 01:56:24;;;;;;;7.60;5.95;;;;;;;17.32;78.45;94333.59;5095391;28;20277;-60
2022/05/14 01:58:50;;;;;;;8.43;6.03;;;;;;;17.28;78.62;94347.75;5113920;28;20211;-62
2022/05/14 02:01:21;;;;;;;11.20;6.28;;;;;;;17.15;78.73;94350.94;5095211;28;20663;-59
2022/05/14 02:03:51;;;;;;;7.05;5.65;;;;;;;17.06;79.11;94340.94;5113913;28;20571;-61
2022/05/14 02:06:17;;;;;;;8.77;5.88;;;;;;;16.92;79.62;94345.09;5113466;28;20164;-59
2022/05/14 02:08:43;;;;;;;8.68;5.78;;;;;;;16.89;80.26;94344.66;5113654;28;20222;-59
2022/05/14 02:11:10;;;;;;;6.40;5.72;;;;;;;17.11;78.72;94359.97;5113532;28;20626;-61
2022/05/14 02:13:36;;;;;;;8.05;5.93;;;;;;;17.09;78.51;94359.34;5113806;28;20280;-59
2022/05/14 02:16:03;;;;;;;6.93;5.28;;;;;;;17.11;78.65;94356.63;5113375;28;20170;-61
2022/05/14 02:18:28;;;;;;;6.97;5.15;;;;;;;17.10;78.39;94355.84;5086803;23;20220;-62
2022/05/14 02:20:53;;;;;;;8.15;5.72;;;;;;;17.01;78.35;94358.66;5072746;28;20170;-62
2022/05/14 02:23:19;;;;;;;8.02;5.05;;;;;;;16.91;78.58;94355.56;5072404;28;20197;-62
2022/05/14 02:25:46;;;;;;;6.22;5.28;;;;;;;17.09;77.74;94372.19;5071790;28;20320;-61
2022/05/14 02:28:12;;;;;;;6.85;4.97;;;;;;;16.96;78.39;94366.09;5072180;28;20257;-59
2022/05/14 02:30:38;;;;;;;8.25;5.97;;;;;;;17.00;78.81;94357.06;5071219;28;20261;-60
2022/05/14 02:33:05;;;;;;;10.52;5.20;;;;;;;16.96;79.26;94350.69;5071194;28;20259;-61
2022/05/14 02:35:30;;;;;;;7.32;5.18;;;;;;;16.98;79.57;94359.00;5071034;28;20184;-59
2022/05/14 02:37:56;;;;;;;8.98;5.07;;;;;;;17.00;79.36;94357.06;5070893;28;20204;-62
2022/05/14 02:40:21;;;;;;;9.50;5.38;;;;;;;17.22;78.17;94374.16;5072346;28;20677;-59
2022/05/14 02:42:47;;;;;;;8.30;5.75;;;;;;;17.17;78.62;94364.41;5072348;28;20206;-59
2022/05/14 02:45:13;;;;;;;9.63;5.35;;;;;;;17.22;79.19;94358.75;5072230;28;20250;-59
2022/05/14 02:47:38;;;;;;;8.10;5.55;;;;;;;17.02;79.64;94353.34;5071925;28;20200;-61
2022/05/14 02:50:06;;;;;;;9.00;5.78;;;;;;;16.95;79.55;94364.50;5072298;28;20654;-61
2022/05/14 02:52:32;;;;;;;13.15;5.93;;;;;;;16.67;80.62;94346.28;5071989;28;20209;-60
2022/05/14 02:54:58;;;;;;;6.78;5.22;;;;;;;16.61;80.10;94363.19;5072564;28;20185;-62
2022/05/14 02:57:24;;;;;;;10.55;5.95;;;;;;;16.55;81.30;94355.38;5070692;28;20176;-61
2022/05/14 02:59:49;;;;;;;9.23;5.32;;;;;;;16.49;81.36;94361.19;5070941;28;20191;-59
2022/05/14 03:02:15;;;;;;;7.47;5.95;;;;;;;16.40;82.00;94354.53;5071766;28;20181;-61
2022/05/14 03:04:42;;;;;;;8.90;6.18;;;;;;;16.46;81.64;94359.75;5072066;28;20187;-60
2022/05/14 03:07:10;;;;;;;9.60;5.70;;;;;;;16.36;81.64;94366.88;5071880;28;20165;-59
2022/05/14 03:09:38;;;;;;;6.88;6.28;;;;;;;16.37;81.82;94360.78;5071734;28;20678;-60
2022/05/14 03:12:04;;;;;;;8.13;6.38;;;;;;;16.26;82.15;94356.03;5072118;28;20189;-60
2022/05/14 03:14:30;;;;;;;11.02;5.30;;;;;;;16.24;81.88;94355.41;5072282;28;20274;-59
2022/05/14 03:16:56;;;;;;;9.27;5.38;;;;;;;16.27;81.91;94367.91;5071936;28;20177;-62
2022/05/14 03:19:21;;;;;;;6.90;4.80;;;;;;;16.33;81.84;94363.84;5070481;28;20213;-61
2022/05/14 03:21:47;;;;;;;7.45;5.45;;;;;;;16.27;82.39;94367.91;5070444;28;20238;-58
2022/05/14 03:24:12;;;;;;;8.63;5.45;;;;;;;16.28;83.34;94364.38;5072098;28;20248;-60
2022/05/14 03:26:40;;;;;;;9.02;5.55;;;;;;;16.42;83.93;94361.06;5071759;28;20616;-64
2022/05/14 03:29:07;;;;;;;6.40;5.63;;;;;;;16.55;82.48;94376.72;5070201;28;20204;-61
2022/05/14 03:31:33;;;;;;;8.18;5.72;;;;;;;16.52;81.96;94386.53;5071405;28;20229;-60
2022/05/14 03:33:58;;;;;;;6.72;5.90;;;;;;;16.67;81.31;94388.16;5070061;28;20241;-60
2022/05/14 03:36:24;;;;;;;6.40;5.00;;;;;;;16.78;80.85;94390.34;5072156;28;20170;-62
2022/05/14 03:38:50;;;;;;;6.00;5.00;;;;;;;16.98;79.74;94402.66;5076123;28;20231;-62
2022/05/14 03:41:20;;;;;;;6.00;5.47;;;;;;;16.93;79.43;94416.03;5074389;28;20651;-61
2022/05/14 03:43:46;;;;;;;6.93;6.22;;;;;;;16.74;80.39;94395.97;5076180;28;20238;-60
2022/05/14 03:46:12;;;;;;;6.50;5.75;;;;;;;16.61;82.38;94386.28;5075622;28;20173;-59
2022/05/14 03:48:38;;;;;;;14.25;6.78;;;;;;;16.93;81.55;94399.84;5074435;28;20212;-62
2022/05/14 03:51:05;;;;;;;9.05;6.45;;;;;;;16.86;81.88;94392.03;5074335;28;20213;-62
2022/05/14 03:53:31;;;;;;;11.10;6.72;;;;;;;16.66;83.32;94378.84;5074260;28;20215;-60
2022/05/14 03:55:56;;;;;;;10.43;6.40;;;;;;;16.72;83.63;94393.56;5075436;28;20260;-61
2022/05/14 03:58:22;;;;;;;11.60;6.78;;;;;;;16.95;82.28;94403.03;5075543;28;20326;-61
2022/05/14 04:00:48;;;;;;;7.55;6.35;;;;;;;17.01;81.00;94413.38;5075324;28;20200;-62
2022/05/14 04:03:14;;;;;;;6.60;6.00;;;;;;;16.76;79.94;94423.09;5057317;28;20703;-62
2022/05/14 04:05:40;;;;;;;8.82;5.82;;;;;;;16.64;79.75;94418.53;5075229;28;20176;-61
2022/05/14 04:08:06;;;;;;;7.28;5.72;;;;;;;16.37;80.54;94412.09;5073803;28;20205;-60
2022/05/14 04:10:32;;;;;;;6.03;5.40;;;;;;;16.49;80.71;94413.34;5073405;28;20227;-60
2022/05/14 04:12:58;;;;;;;8.25;5.93;;;;;;;16.51;80.89;94415.72;5075115;28;20656;-61
2022/05/14 04:15:25;;;;;;;8.30;5.72;;;;;;;16.31;80.93;94410.22;5075155;28;20310;-60
2022/05/14 04:17:51;;;;;;;6.00;5.30;;;;;;;16.28;81.58;94410.53;5072872;28;20228;-62
2022/05/14 04:20:17;;;;;;;8.93;5.47;;;;;;;16.27;82.50;94405.59;5074910;28;20169;-63
2022/05/14 04:22:43;;;;;;;8.65;6.00;;;;;;;16.25;83.41;94400.63;5073554;28;20209;-61
2022/05/14 04:25:11;;;;;;;6.57;5.90;;;;;;;16.31;84.27;94396.59;5075019;28;20161;-62
2022/05/14 04:27:37;;;;;;;9.75;5.72;;;;;;;16.50;83.06;94409.00;5075114;28;20540;-61
2022/05/14 04:30:04;;;;;;;8.23;5.75;;;;;;;16.56;83.09;94414.22;5073348;28;20200;-63
2022/05/14 04:32:30;;;;;;;9.00;5.88;;;;;;;16.64;82.59;94421.88;5074720;28;20173;-60
2022/05/14 04:34:56;;;;;;;9.05;5.97;;;;;;;16.81;82.36;94429.47;5074522;28;20621;-61
2022/05/14 04:37:21;;;;;;;8.82;5.88;;;;;;;16.63;83.53;94422.84;5073351;28;20191;-58
2022/05/14 04:39:49;;;;;;;9.32;5.75;;;;;;;16.86;81.93;94440.81;5074685;28;20177;-58
2022/05/14 04:42:15;;;;;;;8.10;5.85;;;;;;;16.83;81.34;94446.28;5074480;28;20181;-60
2022/05/14 04:44:41;;;;;;;9.75;6.30;;;;;;;16.69;83.01;94429.06;5074752;28;20329;-59
2022/05/14 04:47:06;;;;;;;15.43;6.82;;;;;;;16.65;83.24;94427.81;5074714;28;20230;-62
2022/05/14 04:49:32;;;;;;;8.82;6.03;;;;;;;16.77;82.81;94444.41;5073653;28;20208;-61
2022/05/14 04:51:58;;;;;;;12.32;7.50;;;;;;;16.46;83.31;94435.94;5073300;28;20180;-59
2022/05/14 04:54:24;;;;;;;8.38;6.80;;;;;;;16.41;83.43;94431.31;5115105;23;20254;-62
2022/05/14 04:56:49;;;;;;;9.95;6.95;;;;;;;16.76;82.53;94448.75;5115568;27;20262;-62
2022/05/14 04:59:15;;;;;;;10.90;6.43;;;;;;;17.20;81.26;94468.59;5115002;28;20294;-60
2022/05/14 05:03:16;;;;;;;10.63;7.22;;;;;;;17.45;79.75;94477.69;5114920;28;20172;-59
2022/05/14 05:04:31;;;;;;;9.68;7.22;;;;;;;17.39;80.44;94479.16;5114546;28;20212;-61
2022/05/14 05:06:57;;;;;;;8.05;6.70;;;;;;;17.40;78.23;94500.53;5114777;28;20184;-62
2022/05/14 05:09:23;;;;;;;10.88;7.07;;;;;;;17.13;79.44;94483.13;5115213;28;20210;-60
2022/05/14 05:11:50;;;;;;;8.57;7.00;;;;;;;17.13;80.19;94458.22;5115008;28;20200;-59
2022/05/14 05:14:16;;;;;;;8.60;7.10;;;;;;;17.27;79.49;94478.00;5115058;28;20192;-61
2022/05/14 05:16:41;;;;;;;10.18;6.85;;;;;;;17.32;80.84;94460.31;5114918;28;20168;-63
2022/05/14 05:19:07;;;;;;;11.43;7.75;;;;;;;17.39;80.17;94478.41;5113412;28;20214;-61
2022/05/14 05:21:32;;;;;;;11.52;6.95;;;;;;;17.42;80.04;94483.97;5113337;28;20182;-57
2022/05/14 05:23:57;;;;;;;8.60;7.57;;;;;;;17.41;80.92;94461.03;5114721;28;20214;-62
2022/05/14 05:26:23;;;;;;;9.82;7.25;;;;;;;17.47;81.61;94466.25;5114662;28;20172;-60
2022/05/14 05:28:49;;;;;;;11.57;7.75;;;;;;;17.63;81.75;94470.47;5114293;28;20214;-60
2022/05/14 05:31:15;;;;;;;9.95;7.82;;;;;;;17.78;80.64;94478.97;5114721;28;20179;-58
2022/05/14 05:33:40;;;;;;;10.90;7.32;;;;;;;17.44;82.42;94451.19;5114035;28;20203;-61
2022/05/14 05:36:07;;;;;;;9.25;7.10;;;;;;;17.37;82.95;94455.41;5113341;28;20270;-60
2022/05/14 05:38:33;;;;;;;9.98;7.30;;;;;;;17.48;82.51;94469.63;5112955;28;20202;-59
2022/05/14 05:40:58;;;;;;;12.88;7.20;;;;;;;17.48;82.51;94473.00;5114147;28;20175;-60
2022/05/14 05:43:24;;;;;;;9.93;6.88;;;;;;;17.94;81.30;94486.50;5114023;28;20227;-61
2022/05/14 05:45:50;;;;;;;8.43;6.07;;;;;;;18.14;79.14;94515.06;5112700;28;20586;-59
2022/05/14 05:48:15;;;;;;;8.52;6.53;;;;;;;18.10;80.11;94504.31;5112714;28;20295;-61
2022/05/14 05:50:44;;;;;;;10.55;6.72;;;;;;;17.41;84.34;94466.94;5114018;28;20207;-60
2022/05/14 05:53:10;;;;;;;9.30;6.32;;;;;;;17.72;82.31;94486.59;5111749;28;20216;-59
2022/05/14 05:58:20;;;;;;;11.75;5.53;;;;;;;17.82;80.32;94495.63;5113867;28;20218;-60
2022/05/14 06:00:46;;;;;;;9.57;6.13;;;;;;;18.06;79.49;94504.88;5113823;28;20168;-59
2022/05/14 06:03:11;;;;;;;10.45;6.93;;;;;;;17.76;78.06;94522.06;5112813;28;20203;-62
2022/05/14 06:05:38;;;;;;;9.48;6.70;;;;;;;17.75;79.65;94504.25;5111757;28;20181;-58
2022/05/14 06:08:22;;;;;;;11.50;6.68;;;;;;;17.95;80.44;94500.97;5113445;28;20683;-60
2022/05/14 06:10:47;;;;;;;10.50;7.22;;;;;;;18.10;80.21;94500.97;5113742;28;20160;-61
2022/05/14 06:13:14;;;;;;;10.45;7.07;;;;;;;17.93;81.13;94487.50;5112286;28;20668;-62
2022/05/14 06:15:40;;;;;;;13.07;7.20;;;;;;;17.93;81.79;94486.69;5113373;28;20642;-62
2022/05/14 06:18:06;;;;;;;12.13;7.32;;;;;;;18.13;80.97;94503.97;5100009;22;20751;-61
2022/05/14 06:20:32;;;;;;;13.30;7.28;;;;;;;18.40;81.78;94495.56;5091909;28;20199;-61
2022/05/14 06:22:57;;;;;;;17.80;8.65;;;;;;;18.53;81.73;94492.38;5091888;28;20196;-61
2022/05/14 06:25:23;;;;;;;14.75;7.53;;;;;;;18.50;82.82;94479.09;5093049;28;20173;-60
2022/05/14 06:27:49;;;;;;;12.75;7.82;;;;;;;18.61;82.15;94484.53;5092843;28;20211;-60
2022/05/14 06:30:15;;;;;;;11.38;7.25;;;;;;;18.73;81.57;94495.94;5091430;28;20200;-60
2022/05/14 06:32:41;;;;;;;16.58;8.30;;;;;;;18.89;80.84;94494.91;5092646;28;20287;-59
2022/05/14 06:35:09;;;;;;;24.67;7.82;;;;;;;19.01;79.83;94522.59;5092595;28;20243;-62
2022/05/14 06:37:35;;;;;;;17.17;7.70;;;;;;;19.08;81.18;94512.34;5092355;28;20207;-60
2022/05/14 06:40:01;;;;;;;14.05;8.32;;;;;;;19.23;78.77;94538.84;5092392;28;20176;-59
2022/05/14 06:42:27;;;;;;;19.67;8.77;;;;;;;19.33;78.19;94544.53;5092365;28;20241;-59
2022/05/14 06:44:53;;;;;;;18.23;7.97;;;;;;;19.48;76.34;94552.97;5092585;28;20172;-61
2022/05/14 06:47:20;;;;;;;17.92;8.20;;;;;;;19.42;78.88;94517.63;5074427;28;20185;-60
2022/05/14 06:49:46;;;;;;;11.48;8.13;;;;;;;19.28;76.99;94541.66;5090959;28;20200;-63
2022/05/14 06:52:15;;;;;;;18.33;8.10;;;;;;;19.48;75.34;94562.47;5091001;28;20190;-63
2022/05/14 06:54:45;;;;;;;13.18;9.52;;;;;;;19.47;73.65;94589.25;5091945;28;20180;-59
2022/05/14 06:57:11;;;;;;;20.67;12.73;;;;;;;19.57;74.70;94584.59;5092636;28;20551;-60
2022/05/14 06:59:38;;;;;;;25.00;14.75;;;;;;;19.60;75.03;94561.78;5091326;28;20224;-59
2022/05/14 07:02:04;;;;;;;13.75;8.50;;;;;;;19.63;76.26;94550.31;5092246;28;20589;-62
2022/05/14 07:07:14;;;;;;;12.00;7.40;;;;;;;19.67;78.15;94531.69;5092758;28;20187;-61
2022/05/14 07:09:39;;;;;;;10.68;7.53;;;;;;;19.65;75.91;94568.97;5091886;28;20192;-63
2022/05/14 07:12:10;;;;;;;15.38;8.55;;;;;;;19.93;74.84;94580.09;5091934;28;20184;-58
2022/05/14 07:14:43;;;;;;;16.63;8.80;;;;;;;20.30;72.77;94600.41;5092176;28;20196;-58
2022/05/14 07:17:10;;;;;;;17.10;8.55;;;;;;;20.48;71.98;94608.44;5092352;28;20188;-60
2022/05/14 07:19:36;;;;;;;23.17;9.02;;;;;;;20.49;72.62;94591.97;5092061;28;20196;-59
2022/05/14 07:22:02;;;;;;;24.25;9.80;;;;;;;20.57;72.46;94604.72;5090807;28;20185;-62
2022/05/14 07:24:29;;;;;;;12.00;7.63;;;;;;;20.68;73.59;94586.13;5092081;28;20632;-63
2022/05/14 07:26:57;;;;;;;25.02;8.43;;;;;;;20.94;71.27;94629.34;5090446;28;20188;-63
2022/05/14 07:29:24;;;;;;;18.23;9.23;;;;;;;21.02;70.85;94620.63;5091611;28;20204;-62
2022/05/14 07:31:50;;;;;;;17.90;8.63;;;;;;;21.16;69.36;94643.75;5092132;28;20240;-60
2022/05/14 07:34:16;;;;;;;15.15;8.82;;;;;;;21.00;67.10;94680.28;5091452;28;20631;-59
2022/05/14 07:36:53;;;;;;;26.05;9.48;;;;;;;21.01;70.72;94606.88;5092071;28;20241;-59
2022/05/14 07:39:22;;;;;;;18.73;9.73;;;;;;;21.10;71.94;94592.84;5091713;28;20192;-59
2022/05/14 07:41:53;;;;;;;12.52;8.52;;;;;;;21.23;69.33;94639.38;5091924;28;20196;-61
2022/05/14 07:44:21;;;;;;;16.77;8.25;;;;;;;21.28;68.76;94649.16;5091492;28;20199;-61
2022/05/14 07:46:49;;;;;;;28.10;8.93;;;;;;;21.36;67.93;94657.53;5091387;28;20204;-60
2022/05/14 07:49:16;;;;;;;14.55;9.23;;;;;;;21.83;67.07;94679.97;5091475;28;20630;-61
2022/05/14 07:51:42;;;;;;;12.90;9.40;;;;;;;22.18;66.17;94688.34;5092099;28;20184;-62
2022/05/14 07:54:08;;;;;;;19.40;8.93;;;;;;;22.21;67.36;94664.63;5091672;28;20568;-62
2022/05/14 07:56:34;;;;;;;17.13;9.88;;;;;;;22.17;66.07;94679.78;5091967;28;20176;-62
2022/05/14 07:58:59;;;;;;;17.13;8.73;;;;;;;22.32;66.22;94669.97;5091561;28;20253;-59
2022/05/14 08:01:25;;;;;;;16.10;9.23;;;;;;;22.58;65.25;94692.53;5091852;28;20188;-62
2022/05/14 08:03:51;;;;;;;16.35;9.50;;;;;;;22.51;64.06;94697.69;5091521;28;20551;-62
2022/05/14 08:06:17;;;;;;;15.32;8.88;;;;;;;22.52;65.34;94672.56;5091574;28;20516;-59
2022/05/14 08:08:43;;;;;;;19.73;8.85;;;;;;;22.53;64.71;94680.13;5091638;28;20254;-62
2022/05/14 08:11:09;;;;;;;14.50;9.18;;;;;;;22.84;64.01;94691.66;5092089;28;20192;-62
2022/05/14 08:13:35;;;;;;;14.50;8.48;;;;;;;22.86;64.91;94672.31;5091854;28;20754;-60
2022/05/14 08:16:02;;;;;;;18.48;9.32;;;;;;;22.89;63.26;94700.41;5091572;28;20217;-60
2022/05/14 08:18:28;;;;;;;13.52;9.27;;;;;;;23.33;62.06;94707.50;5091577;28;20204;-60
2022/05/14 08:20:53;;;;;;;18.00;9.27;;;;;;;23.53;62.67;94702.19;5091555;28;20626;-60
2022/05/14 08:26:04;;;;;;;12.75;9.00;;;;;;;23.69;60.13;94725.06;5095463;28;20233;-62
2022/05/14 08:28:30;;;;;;;15.98;8.07;;;;;;;23.83;62.35;94677.25;5094682;28;20227;-62
2022/05/14 08:30:56;;;;;;;17.48;9.23;;;;;;;24.16;62.88;94662.22;5095060;28;20184;-62
2022/05/14 08:33:22;;;;;;;14.32;8.20;;;;;;;24.32;62.86;94651.28;5095064;28;20203;-60
2022/05/14 08:35:47;;;;;;;15.40;9.05;;;;;;;24.03;60.12;94719.50;5095041;28;20172;-61
2022/05/14 08:38:15;;;;;;;15.35;8.30;;;;;;;24.24;60.10;94700.94;5094826;28;20200;-60
2022/05/14 08:40:52;;;;;;;19.80;9.88;;;;;;;24.51;60.22;94698.91;5095059;28;20172;-63
2022/05/14 08:43:24;;;;;;;16.55;9.55;;;;;;;24.83;59.67;94698.63;5095035;28;20195;-60
2022/05/14 08:45:50;;;;;;;14.95;9.23;;;;;;;25.08;59.65;94698.56;5094889;28;20599;-63
2022/05/14 08:48:21;;;;;;;22.38;9.05;;;;;;;25.16;58.43;94726.91;5093455;28;20265;-61
2022/05/14 08:50:56;;;;;;;17.45;9.40;;;;;;;25.07;60.12;94676.16;5094874;28;20743;-62
2022/05/14 08:53:24;;;;;;;17.08;8.98;;;;;;;24.93;60.52;94677.31;5094541;28;20231;-63
2022/05/14 08:56:21;;;;;;;12.27;7.82;;;;;;;25.06;58.90;94684.97;5093399;28;20654;-62
2022/05/14 08:59:21;;;;;;;13.02;8.85;;;;;;;25.24;58.32;94713.59;5094638;28;20660;-62
2022/05/14 09:01:48;;;;;;;17.73;9.60;;;;;;;25.59;56.03;94755.47;5012480;28;20314;-62
2022/05/14 09:04:20;;;;;;;12.38;9.18;;;;;;;25.20;55.14;94750.69;5077648;28;20244;-61
2022/05/14 09:06:47;;;;;;;14.27;8.30;;;;;;;25.42;58.13;94673.75;5094487;28;20172;-61
2022/05/14 09:09:13;;;;;;;19.75;9.73;;;;;;;24.91;54.93;94755.59;5094277;28;20208;-59
2022/05/14 09:11:44;;;;;;;15.75;8.63;;;;;;;24.90;55.76;94729.78;5094696;28;20180;-61
2022/05/14 09:14:18;;;;;;;12.18;7.93;;;;;;;25.09;56.75;94710.56;5094288;28;20253;-61
2022/05/14 09:16:44;;;;;;;13.27;8.40;;;;;;;25.35;53.80;94798.75;5092823;28;20243;-63
2022/05/14 09:19:36;;;;;;;14.32;7.53;;;;;;;25.92;53.10;94802.72;5094128;28;20230;-61
2022/05/14 09:22:29;;;;;;;16.10;8.82;;;;;;;26.06;50.53;94838.03;5094647;28;20187;-61
2022/05/14 09:25:07;;;;;;;11.55;9.40;;;;;;;26.76;52.32;94792.16;5093340;28;20200;-59
2022/05/14 09:28:05;;;;;;;14.60;8.50;;;;;;;27.12;49.44;94851.16;5092904;28;20214;-59
2022/05/14 09:30:43;;;;;;;13.98;8.55;;;;;;;26.56;52.14;94766.31;5093787;28;20211;-62
2022/05/14 09:33:42;;;;;;;11.30;8.82;;;;;;;26.53;51.72;94771.19;5093953;28;20218;-62
2022/05/14 09:36:15;;;;;;;9.52;8.00;;;;;;;26.90;50.24;94792.72;5093460;28;20556;-60
2022/05/14 09:38:42;;;;;;;9.82;8.27;;;;;;;27.04;50.46;94786.25;5092472;28;20283;-59
2022/05/14 09:41:18;;;;;;;12.95;7.65;;;;;;;27.48;49.75;94796.09;5094163;28;20230;-61
2022/05/14 09:43:45;;;;;;;9.35;7.50;;;;;;;27.96;50.76;94757.34;5093792;28;20274;-59
2022/05/14 09:46:24;;;;;;;11.02;8.60;;;;;;;27.88;48.67;94814.41;5094198;28;20176;-61
2022/05/14 09:48:53;;;;;;;14.32;7.53;;;;;;;27.47;50.05;94770.22;5092196;28;20211;-64
2022/05/14 09:51:46;;;;;;;10.32;7.85;;;;;;;26.85;52.43;94704.66;5093906;28;20184;-59
2022/05/14 09:54:28;;;;;;;10.93;7.22;;;;;;;26.39;54.08;94666.31;5093512;28;20283;-62
2022/05/14 09:56:57;;;;;;;17.95;9.80;;;;;;;25.37;55.74;94624.91;5092315;28;20206;-61
2022/05/14 09:59:40;;;;;;;13.05;9.40;;;;;;;25.28;55.86;94636.66;5093559;28;20205;-59
2022/05/14 10:02:51;;;;;;;17.50;8.40;;;;;;;24.74;56.70;94629.72;5093987;28;20622;-62
2022/05/14 10:05:23;;;;;;;9.38;5.32;;;;;;;24.58;53.65;94712.66;5048070;28;20245;-61
2022/05/14 10:08:05;;;;;;;6.43;5.68;;;;;;;24.27;53.02;94733.50;5093306;28;20212;-59
2022/05/14 10:10:51;;;;;;;6.55;5.50;;;;;;;24.43;52.82;94735.59;5093448;28;20208;-62
2022/05/14 10:13:41;;;;;;;9.82;6.57;;;;;;;24.32;54.15;94692.88;5093228;28;20574;-62
2022/05/14 10:16:34;;;;;;;7.50;6.57;;;;;;;24.31;57.16;94636.72;5093219;28;20177;-61
2022/05/14 10:19:11;;;;;;;13.73;7.10;;;;;;;24.14;60.19;94581.09;5092913;28;20230;-59
2022/05/14 10:21:48;;;;;;;15.98;7.82;;;;;;;23.91;63.63;94534.94;5093306;28;20184;-63
2022/05/14 10:27:16;;;;;;;16.38;8.25;;;;;;;23.71;69.00;94508.38;5093628;28;20186;-64
2022/05/14 10:29:54;;;;;;;14.68;9.50;;;;;;;23.97;68.19;94533.28;5093004;28;20199;-61
2022/05/14 10:32:20;;;;;;;13.80;9.10;;;;;;;24.58;69.63;94521.06;5093507;28;20172;-62
2022/05/14 10:34:54;;;;;;;13.57;8.63;;;;;;;25.04;67.82;94550.91;5092677;28;20184;-60
2022/05/14 10:37:31;;;;;;;12.48;8.10;;;;;;;25.61;63.93;94629.22;5091865;28;20180;-62
2022/05/14 10:40:02;;;;;;;15.43;8.55;;;;;;;26.19;62.01;94652.81;5092672;28;20164;-62
2022/05/14 10:42:59;;;;;;;13.00;9.80;;;;;;;26.32;56.03;94771.75;5093325;28;20215;-60
2022/05/14 10:45:43;;;;;;;10.65;7.80;;;;;;;26.35;56.47;94738.19;5092530;28;20215;-60
2022/05/14 10:48:27;;;;;;;11.57;8.07;;;;;;;26.55;56.66;94723.00;5090773;28;20724;-61
2022/05/14 10:50:53;;;;;;;9.70;7.78;;;;;;;26.71;58.61;94673.78;5091057;28;20220;-62
2022/05/14 10:53:19;;;;;;;10.30;8.23;;;;;;;27.04;56.00;94718.38;5091094;28;20689;-61
2022/05/14 10:56:06;;;;;;;13.73;8.32;;;;;;;27.18;53.93;94758.88;5092585;28;20202;-62
2022/05/14 10:58:43;;;;;;;12.70;7.38;;;;;;;26.31;57.49;94658.03;5092289;28;20196;-59
2022/05/14 11:01:10;;;;;;;14.88;8.32;;;;;;;25.68;58.80;94626.50;5111895;23;20779;-62
2022/05/14 11:03:40;;;;;;;13.90;8.70;;;;;;;25.62;58.64;94638.63;5111308;28;20223;-61
2022/05/14 11:06:09;;;;;;;9.07;8.18;;;;;;;25.33;58.66;94623.00;5112901;28;20195;-62
2022/05/14 11:08:46;;;;;;;12.05;7.75;;;;;;;25.36;58.14;94636.34;5112554;28;20194;-62
2022/05/14 11:11:19;;;;;;;9.57;8.23;;;;;;;25.79;57.00;94667.44;5113020;28;20207;-60
2022/05/14 11:13:58;;;;;;;9.93;8.07;;;;;;;25.85;57.51;94648.31;5112418;28;20200;-61
2022/05/14 11:16:39;;;;;;;10.30;8.05;;;;;;;26.53;58.50;94618.13;5113013;28;20258;-61
2022/05/14 11:19:07;;;;;;;13.30;7.35;;;;;;;26.63;55.84;94693.19;5112553;28;20570;-61
2022/05/14 11:21:38;;;;;;;10.07;7.53;;;;;;;27.39;51.81;94787.81;5112896;28;20175;-60
2022/05/14 11:24:04;;;;;;;10.02;7.03;;;;;;;27.24;51.80;94765.78;5112721;28;20205;-60
2022/05/14 11:26:30;;;;;;;9.65;7.47;;;;;;;27.49;52.45;94734.19;5112957;28;20179;-60
2022/05/14 11:29:16;;;;;;;8.57;6.82;;;;;;;27.77;53.03;94727.19;5112122;28;20203;-60
2022/05/14 11:31:56;;;;;;;11.45;7.13;;;;;;;28.10;49.48;94813.56;5112547;28;20270;-61
2022/05/14 11:34:25;;;;;;;12.32;7.38;;;;;;;28.46;50.53;94780.19;5112102;28;20695;-59
2022/05/14 11:36:55;;;;;;;12.38;7.20;;;;;;;28.13;49.68;94786.94;5112257;28;20168;-59
2022/05/14 11:39:20;;;;;;;9.68;7.45;;;;;;;27.95;51.32;94745.31;5112018;28;20227;-60
2022/05/14 11:41:46;;;;;;;9.85;7.20;;;;;;;28.54;51.72;94730.06;5112322;28;20682;-61
2022/05/14 11:44:12;;;;;;;9.43;7.50;;;;;;;29.05;51.11;94748.13;5110778;28;20231;-59
2022/05/14 11:46:48;;;;;;;9.68;6.95;;;;;;;29.23;48.17;94807.34;5112043;28;20215;-62
2022/05/14 11:49:23;;;;;;;9.32;6.93;;;;;;;29.13;47.63;94799.31;5110590;28;20211;-60
2022/05/14 11:52:03;;;;;;;11.80;7.40;;;;;;;29.50;48.54;94776.78;5112170;28;20177;-60
2022/05/14 11:54:37;;;;;;;9.68;7.68;;;;;;;29.72;47.12;94793.31;5112430;28;20620;-61